Terminal Aerodrome Forecast
Issued by NWS Melbourne, FL

Home | Current Version | Previous Version | Text Only | Print | Product List | Glossary On
Versions: 1 2 3 4 5 6 7 8 9 10 11 12 13 14 15 16 17
000
FTUS42 KMLB 012320
TAFDAB
TAF
KDAB 012320Z 0200/0224 20004KT P6SM SCT040 BKN060 OVC120
     FM021400 22012KT P6SM SCT030 BKN120
     FM021600 23013G20KT P6SM VCSH SCT040 BKN080
      TEMPO 0216/0220 3SM TSRA BKN020CB OVC040
     FM022200 23007KT P6SM SCT030 OVC060=

USA.gov is the U.S. government's official web portal to all federal, state and local government web resources and services.